Latest Weather Observations for Omeo

IDV60801

Issued at 9:02 pm EDT Friday 27 March 2015 (issued every 30 minutes, with the page automatically refreshed every 10 minutes)

About weather observations | Map of weather stations | Latest weather observations for VIC | Other Formats
Station Details ID: 083090 Name: OMEO Lat: -37.10 Lon: 147.60 Height: 689.8 m
Data from the previous 72 hours. | See also: Recent months at Omeo
Date/Time
EDT
Temp
°C
App
Temp
°C
Dew
Point
Rel
Hum
%
Delta-T
°C
Wind Press
QNH
hPa
Press
MSL
hPa
Rain
since 9 am
mm
Dir
 
Spd
km/h
Gust
km/h
Spd
kts
Gust
kts
27/09:00pm 12.1 8.7 3.9 57 3.8 S 11 22 6 12 1022.5 1020.6 0.0
27/08:30pm 12.9 9.8 3.8 54 4.2 SSW 9 17 5 9 1022.1 1020.2 0.0
27/08:00pm 13.1 10.0 3.7 53 4.4 SSW 9 17 5 9 1021.8 1019.9 0.0
27/07:30pm 13.4 9.5 3.5 51 4.6 SW 13 26 7 14 1021.5 1019.6 0.0
27/07:00pm 13.9 10.0 3.4 49 4.9 SSW 13 26 7 14 1021.0 1019.1 0.0
27/06:30pm 14.6 11.5 3.4 47 5.3 SW 9 13 5 7 1020.8 1018.9 0.0
27/06:00pm 15.1 10.8 3.3 45 5.6 W 15 24 8 13 1020.4 1018.5 0.0
27/05:30pm 15.7 11.8 3.2 43 5.9 WSW 13 20 7 11 1020.2 1018.3 0.0
27/05:00pm 16.5 12.6 3.2 41 6.3 SSW 13 22 7 12 1020.1 1018.1 0.0
27/04:30pm 15.6 10.4 2.7 42 6.0 SSW 19 33 10 18 1020.1 1018.1 0.0
27/04:00pm 17.1 13.3 3.8 41 6.4 W 13 22 7 12 1019.9 1017.9 0.0
27/03:30pm 17.4 13.1 3.3 39 6.8 W 15 26 8 14 1019.8 1017.8 0.0
27/03:00pm 17.3 12.2 3.2 39 6.7 SW 19 32 10 17 1019.9 1017.9 0.0
27/02:30pm 16.7 11.5 2.7 39 6.6 W 19 32 10 17 1019.9 1017.9 0.0
27/02:00pm 17.5 11.3 2.3 36 7.1 W 24 35 13 19 1019.8 1017.8 0.0
27/01:30pm 17.1 11.4 3.1 39 6.7 WSW 22 35 12 19 1020.0 1018.0 0.0
27/01:00pm 16.8 11.1 3.1 40 6.5 W 22 54 12 29 1020.1 1018.1 0.0
27/12:30pm 15.9 11.2 3.4 43 5.9 W 17 32 9 17 1020.4 1018.5 0.0
27/12:00pm 15.1 10.4 3.0 44 5.7 WSW 17 32 9 17 1020.5 1018.6 0.0
27/11:30am 14.8 10.8 3.0 45 5.5 WNW 13 24 7 13 1020.6 1018.7 0.0
27/11:00am 14.0 9.3 2.9 47 5.1 W 17 28 9 15 1020.4 1018.5 0.0
27/10:30am 13.7 8.4 2.9 48 5.0 WNW 20 32 11 17 1020.2 1018.3 0.0
27/10:00am 13.7 7.6 2.6 47 5.1 WNW 24 39 13 21 1019.9 1017.9 0.0
27/09:30am 12.9 8.7 3.6 53 4.3 NNW 15 24 8 13 1019.8 1017.8 0.0
27/09:00am 11.1 6.1 3.6 60 3.4 N 19 28 10 15 1019.5 1017.6 0.0
27/08:30am 9.2 4.3 4.0 70 2.4 N 19 26 10 14 1019.4 1017.5 0.0
27/08:00am 8.1 3.5 3.9 75 1.9 NNW 17 28 9 15 1019.3 1017.4 0.0
27/07:30am 7.4 2.8 3.6 77 1.7 NNW 17 24 9 13 1019.2 1017.3 0.0
27/07:00am 7.9 4.0 3.6 74 1.9 NW 13 22 7 12 1018.7 1016.7 0.0
27/06:30am 8.3 3.3 3.6 72 2.1 NNW 19 24 10 13 1018.3 1016.3 0.0
27/06:00am 8.4 3.4 3.5 71 2.2 NW 19 24 10 13 1018.3 1016.3 0.0
27/05:30am 8.5 3.4 3.1 69 2.4 NW 19 24 10 13 1018.4 1016.4 0.0
27/05:00am 9.1 3.8 3.1 66 2.7 NNW 20 28 11 15 1018.1 1016.1 0.0
27/04:30am 9.5 4.8 3.3 65 2.8 N 17 26 9 14 1018.1 1016.1 0.0
27/04:00am 9.5 4.4 3.3 65 2.8 N 19 32 10 17 1018.1 1016.1 0.0
27/03:30am 9.6 4.4 2.7 62 3.1 N 19 24 10 13 1018.1 1016.1 0.0
27/03:00am 9.4 5.3 2.3 61 3.1 N 13 22 7 12 1018.2 1016.2 0.0
27/02:30am 9.8 4.9 2.2 59 3.3 N 17 28 9 15 1018.5 1016.5 0.0
27/02:00am 9.9 5.0 1.8 57 3.5 N 17 26 9 14 1018.6 1016.6 0.0
27/01:30am 10.1 4.6 1.7 56 3.7 N 20 33 11 18 1018.4 1016.4 0.0
27/01:00am 9.9 4.3 1.5 56 3.6 N 20 35 11 19 1018.5 1016.5 0.0
27/12:30am 10.4 3.3 1.2 53 4.0 N 28 41 15 22 1018.6 1016.6 0.0
27/12:24am 10.4 3.3 1.2 53 4.0 N 28 41 15 22 1018.2 1016.2 0.0
27/12:00am 10.1 5.3 0.2 50 4.2 N 15 22 8 12 1018.4 1016.4 0.0
 
Date/Time
EDT
Temp
°C
App
Temp
°C
Dew
Point
Rel
Hum
%
Delta-T
°C
Wind Press
QNH
hPa
Press
MSL
hPa
Rain
since 9 am
mm
Dir
 
Spd
km/h
Gust
km/h
Spd
kts
Gust
kts
26/11:30pm 9.8 5.3 -0.4 49 4.2 N 13 20 7 11 1018.5 1016.5 0.0
26/11:00pm 9.8 3.9 -0.7 48 4.3 N 20 32 11 17 1018.2 1016.2 0.0
26/10:30pm 9.6 3.7 -1.1 47 4.4 N 20 30 11 16 1018.5 1016.5 0.0
26/10:00pm 9.4 3.4 -1.3 47 4.3 N 20 30 11 16 1018.6 1016.6 0.0
26/09:30pm 9.3 4.3 -1.4 47 4.3 N 15 24 8 13 1018.7 1016.7 0.0
26/09:00pm 9.9 4.8 -1.8 44 4.7 NNW 15 22 8 12 1019.0 1017.1 0.0
26/08:30pm 10.2 4.4 -1.8 43 4.8 NNW 19 26 10 14 1018.6 1016.6 0.0
26/08:00pm 10.3 4.4 -2.0 42 4.9 N 19 28 10 15 1018.2 1016.2 0.0
26/07:30pm 10.9 5.4 -2.1 40 5.2 NNW 17 24 9 13 1018.2 1016.2 0.0
26/07:00pm 11.4 5.9 -2.0 39 5.4 NW 17 26 9 14 1018.3 1016.3 0.0
26/06:30pm 12.6 6.7 -2.4 35 6.1 NNW 19 32 10 17 1017.8 1015.9 0.0
26/06:00pm 12.6 4.6 -2.4 35 6.1 NW 30 43 16 23 1017.1 1015.1 0.0
26/05:33pm 13.3 5.3 -2.6 33 6.5 NW 30 48 16 26 1016.9 1014.9 0.0
26/05:30pm 13.4 5.4 -2.5 33 6.5 NW 30 43 16 23 1016.9 1014.9 0.0
26/05:00pm 14.5 8.0 -2.4 31 7.0 NW 22 35 12 19 1016.9 1014.9 0.0
26/04:33pm 14.9 6.4 -3.0 29 7.4 WNW 32 50 17 27 1016.9 1014.9 0.0
26/04:30pm 14.1 5.4 -3.6 29 7.1 NW 33 50 18 27 1016.8 1014.8 0.0
26/04:11pm 14.4 6.3 -3.4 29 7.2 NW 30 48 16 26 1016.8 1014.8 0.0
26/04:00pm 15.0 8.2 -2.0 31 7.2 NW 24 37 13 20 1016.9 1014.9 0.0
26/03:30pm 13.8 6.5 -2.6 32 6.7 NW 26 37 14 20 1017.2 1015.2 0.0
26/03:00pm 15.6 8.9 -1.4 31 7.3 WNW 24 41 13 22 1017.1 1015.1 0.0
26/02:40pm 15.3 6.8 -3.1 28 7.6 NW 32 56 17 30 1017.0 1015.0 0.0
26/02:30pm 15.1 6.6 -3.3 28 7.5 NW 32 46 17 25 1017.0 1015.0 0.0
26/02:07pm 15.5 7.7 -3.4 27 7.8 NW 28 48 15 26 1016.8 1014.8 0.0
26/02:00pm 15.3 7.7 -2.2 30 7.4 NW 28 37 15 20 1016.8 1014.8 0.0
26/01:30pm 14.5 7.6 -2.4 31 7.0 NW 24 41 13 22 1016.8 1014.8 0.0
26/01:00pm 14.5 6.4 -2.8 30 7.1 NW 30 48 16 26 1016.8 1014.8 0.0
26/12:55pm 15.3 7.6 -2.6 29 7.5 NW 28 48 15 26 1016.8 1014.8 0.0
26/12:30pm 15.3 8.0 -2.6 29 7.5 NNW 26 41 14 22 1016.8 1014.8 0.0
26/12:19pm 15.3 7.6 -3.1 28 7.6 NNW 28 43 15 23 1016.8 1014.8 0.0
26/12:00pm 14.8 5.3 -4.0 27 7.6 NW 37 56 20 30 1016.8 1014.8 0.0
26/11:50am 14.5 6.6 -1.6 33 6.8 NW 30 48 16 26 1016.8 1014.8 0.0
26/11:30am 13.9 7.0 2.8 47 5.1 NW 28 39 15 21 1016.8 1014.8 0.0
26/11:00am 12.4 6.0 3.1 53 4.3 NNW 26 41 14 22 1016.7 1014.7 0.0
26/10:30am 13.0 6.1 2.8 50 4.7 NNW 28 41 15 22 1016.3 1014.4 0.0
26/10:00am 11.9 6.1 2.1 51 4.4 NNW 22 32 12 17 1016.4 1014.5 0.0
26/09:30am 12.5 6.3 2.1 49 4.7 NNW 24 41 13 22 1016.2 1014.2 0.0
26/09:00am 12.2 6.8 2.4 51 4.4 N 20 35 11 19 1016.3 1014.4 0.0
26/08:30am 9.9 5.0 2.3 59 3.4 NNW 17 22 9 12 1016.4 1014.5 0.0
26/08:00am 9.0 3.1 1.9 61 3.1 N 22 32 12 17 1016.2 1014.2 0.0
26/07:30am 7.3 3.2 2.0 69 2.3 N 13 20 7 11 1016.1 1014.1 0.0
26/07:00am 6.9 3.5 1.6 69 2.2 N 9 13 5 7 1016.1 1014.1 0.0
26/06:30am 7.1 2.9 1.6 68 2.3 N 13 17 7 9 1016.0 1014.0 0.0
26/06:00am 7.3 3.5 2.0 69 2.3 NNW 11 13 6 7 1016.0 1014.0 0.0
26/05:30am 8.0 4.7 2.5 68 2.4 NNW 9 13 5 7 1015.8 1013.8 0.0
26/05:00am 7.8 4.2 2.7 70 2.2 NNW 11 15 6 8 1015.5 1013.5 0.0
26/04:30am 7.9 4.7 2.8 70 2.2 NW 9 15 5 8 1015.4 1013.4 0.0
26/04:00am 8.4 5.2 3.3 70 2.3 NW 9 13 5 7 1015.4 1013.4 0.0
26/03:30am 8.5 4.9 3.1 69 2.4 NNW 11 17 6 9 1015.6 1013.6 0.0
26/03:00am 9.2 6.0 3.2 66 2.7 NNW 9 13 5 7 1015.8 1013.8 0.0
26/02:30am 9.9 6.8 3.4 64 2.9 NNW 9 13 5 7 1015.7 1013.7 0.0
26/02:00am 10.4 7.6 3.4 62 3.2 NW 7 11 4 6 1015.8 1013.8 0.0
26/01:30am 10.7 6.9 3.7 62 3.2 WNW 13 22 7 12 1015.5 1013.5 0.0
26/01:00am 11.2 7.4 3.7 60 3.5 NW 13 17 7 9 1014.8 1012.8 0.0
26/12:30am 11.7 8.7 4.0 59 3.6 NW 9 15 5 8 1015.3 1013.3 0.0
26/12:00am 11.6 8.7 4.6 62 3.3 WNW 9 11 5 6 1015.3 1013.3 0.0
 
Date/Time
EDT
Temp
°C
App
Temp
°C
Dew
Point
Rel
Hum
%
Delta-T
°C
Wind Press
QNH
hPa
Press
MSL
hPa
Rain
since 9 am
mm
Dir
 
Spd
km/h
Gust
km/h
Spd
kts
Gust
kts
25/11:30pm 11.3 9.1 5.4 67 2.8 NW 6 9 3 5 1015.3 1013.3 0.0
25/11:00pm 11.6 8.9 5.5 66 2.9 NW 9 15 5 8 1015.4 1013.4 0.0
25/10:30pm 11.5 9.1 5.4 66 2.9 NW 7 13 4 7 1015.4 1013.4 0.0
25/10:00pm 11.9 9.7 5.3 64 3.2 NNE 6 11 3 6 1015.5 1013.5 0.0
25/09:30pm 12.6 10.2 5.3 61 3.5 NNW 7 13 4 7 1015.5 1013.5 0.0
25/09:00pm 12.6 9.8 5.3 61 3.5 W 9 11 5 6 1015.8 1013.8 0.0
25/08:30pm 13.8 11.4 5.2 56 4.2 WNW 7 11 4 6 1015.6 1013.6 0.0
25/08:00pm 15.5 11.5 5.1 50 5.1 WNW 15 22 8 12 1015.4 1013.4 0.0
25/07:30pm 15.6 11.5 4.6 48 5.4 NW 15 20 8 11 1015.2 1013.2 0.0
25/07:00pm 16.7 12.2 4.4 44 6.0 NW 17 26 9 14 1015.1 1013.1 0.0
25/06:30pm 17.5 12.4 4.1 41 6.5 NNW 20 30 11 16 1014.7 1012.7 0.0
25/06:00pm 18.6 14.0 5.5 42 6.6 NNW 19 28 10 15 1014.7 1012.7 0.0
25/05:30pm 18.9 14.0 5.0 40 7.0 N 20 35 11 19 1014.3 1012.3 0.0
25/05:00pm 19.4 14.0 4.7 38 7.4 N 22 32 12 17 1014.4 1012.4 0.0
25/04:30pm 19.2 14.3 4.9 39 7.2 N 20 35 11 19 1014.3 1012.3 0.0
25/04:00pm 18.8 13.9 5.3 41 6.8 N 20 30 11 16 1014.5 1012.5 0.0
25/03:30pm 18.9 14.1 5.7 42 6.7 N 20 32 11 17 1014.7 1012.7 0.0
25/03:00pm 18.4 15.0 5.9 44 6.4 N 13 24 7 13 1015.4 1013.4 0.0
25/02:30pm 18.7 15.0 6.5 45 6.3 N 15 24 8 13 1015.6 1013.6 0.0
25/02:00pm 18.2 16.1 6.7 47 5.9 N 7 13 4 7 1015.9 1013.9 0.0
25/01:30pm 17.2 14.9 7.3 52 5.1 N 9 15 5 8 1017.0 1015.0 0.0
25/01:00pm 17.9 15.6 7.6 51 5.4 SE 9 24 5 13 1017.7 1015.8 0.0
25/12:30pm 16.5 14.9 8.2 58 4.4 SSE 6 13 3 7 1018.2 1016.2 0.0
25/12:00pm 15.1 13.2 7.4 60 3.9 SE 7 13 4 7 1018.6 1016.6 0.0
25/11:30am 14.9 13.2 7.7 62 3.7 ESE 6 9 3 5 1018.9 1017.0 0.0
25/11:00am 13.0 12.6 8.1 72 2.5 CALM 0 7 0 4 1019.1 1017.2 0.0
25/10:30am 12.6 11.8 8.3 75 2.2 SE 2 9 1 5 1019.3 1017.4 0.0
25/10:00am 12.5 12.5 9.7 83 1.5 CALM 0 6 0 3 1018.9 1017.0 0.0
25/09:30am 11.2 11.3 10.1 93 0.6 CALM 0 0 0 0 1018.7 1016.7 0.0
25/09:00am 10.5 10.1 9.6 94 0.5 W 2 6 1 3 1018.8 1016.8 1.0
25/08:30am 10.1 9.6 9.3 95 0.4 E 2 7 1 4 1018.2 1016.2 1.0
25/08:00am 9.7 9.5 8.9 95 0.4 CALM 0 0 0 0 1018.2 1016.2 1.0
25/07:30am 9.4 9.1 8.6 95 0.4 CALM 0 0 0 0 1018.1 1016.1 1.0
25/07:00am 9.3 9.0 8.5 95 0.4 CALM 0 0 0 0 1017.9 1016.0 1.0
25/06:30am 9.3 7.8 8.5 95 0.4 SSE 6 6 3 3 1017.7 1015.8 1.0
25/06:00am 9.5 8.1 8.7 95 0.4 SSE 6 7 3 4 1017.8 1015.9 1.0
25/05:30am 9.4 7.8 8.6 95 0.4 S 7 11 4 6 1017.8 1015.9 1.0
25/05:00am 9.2 8.5 8.4 95 0.4 S 2 6 1 3 1017.4 1015.4 1.0
25/04:30am 9.5 7.9 8.7 95 0.4 S 7 11 4 6 1016.9 1014.9 1.0
25/04:00am 9.7 8.1 8.9 95 0.4 S 7 9 4 5 1017.5 1015.5 1.0
25/03:30am 9.7 8.3 8.9 95 0.4 SSW 6 9 3 5 1017.5 1015.5 1.0
25/03:00am 9.9 9.7 9.1 95 0.4 CALM 0 0 0 0 1017.5 1015.5 1.0
25/02:30am 10.1 9.9 9.2 94 0.5 CALM 0 7 0 4 1017.8 1015.9 0.8
25/02:00am 10.0 9.1 9.1 94 0.5 SSW 4 7 2 4 1018.1 1016.1 0.8
25/01:30am 9.8 8.8 8.9 94 0.5 WSW 4 7 2 4 1018.2 1016.2 0.8
25/01:00am 9.8 8.7 8.6 92 0.6 S 4 7 2 4 1018.3 1016.3 0.4
25/12:30am 9.8 8.1 8.4 91 0.7 SSE 7 9 4 5 1018.3 1016.3 0.2
25/12:00am 10.1 8.0 8.2 88 1.0 SE 9 15 5 8 1018.4 1016.4 0.2
 
Date/Time
EDT
Temp
°C
App
Temp
°C
Dew
Point
Rel
Hum
%
Delta-T
°C
Wind Press
QNH
hPa
Press
MSL
hPa
Rain
since 9 am
mm
Dir
 
Spd
km/h
Gust
km/h
Spd
kts
Gust
kts
24/11:30pm 10.9 9.1 7.8 81 1.6 SSE 7 11 4 6 1018.5 1016.5 0.2
24/11:00pm 11.1 9.3 7.8 80 1.7 S 7 11 4 6 1018.5 1016.5 0.2
24/10:30pm 11.1 9.3 7.2 77 1.9 SSW 6 11 3 6 1018.5 1016.5 0.2
24/10:00pm 11.0 9.2 7.1 77 1.9 SSE 6 9 3 5 1018.5 1016.5 0.2
24/09:30pm 10.9 8.9 7.2 78 1.8 SSE 7 15 4 8 1018.3 1016.3 0.2

Other Formats:

Comma delimited format used in spreadsheet applications
http://www.bom.gov.au/fwo/IDV60801/IDV60801.94908.axf

JavaScript Object Notation format (JSON) in row-major order
http://www.bom.gov.au/fwo/IDV60801/IDV60801.94908.json